KNRS/NRS METAR and TAF weather

Enter ICAO airport designator
Station Type Date Time Source
KNRS METAR 2022/06/29 00:53 UTC NOAA

KNRS 290053Z 24006KT 10SM FEW007 FEW050 22/18 A2997 RMK AO2 SLP149 T02170178 $


Station Type Date Time Source
KNRS Decoded METAR 2022/06/29 00:53 UTC NOAA

IMPERIAL BEACH, NOLF, CA, United States (KNRS) 32-34N 117-07W 5M
Jun 28, 2022 - 08:53 PM EDT / 2022.06.29 0053 UTC
Wind: from the WSW (240 degrees) at 7 MPH (6 KT):0
Visibility: 10 mile(s):0
Sky conditions: mostly clear
Temperature: 71.1 F (21.7 C)
Dew Point: 64.0 F (17.8 C)
Relative Humidity: 78%
Pressure (altimeter): 29.97 in. Hg (1014 hPa)
ob: KNRS 290053Z 24006KT 10SM FEW007 FEW050 22/18 A2997 RMK AO2 SLP149 T02170178
cycle: 1

Station Type Date Time Source
KNRS TAF UTC NOAA

Error!

Example: see airport list